メキシコシティ の空港の天気 - METARとTAF

メキシコ・シティ国際空港 ( MMMX / MEX ) - メキシコ メキシコシティ
飛行場実況気象(Metar)
観測時間06/18 01:40 CDT (06/18 06:40 UTC)
風向・風速南東 4m/s
視程10km以上
天気現象
全天の4割程度の雲 雲底高度 610m
全天の8割程度の雲 雲底高度 2440m
全天の8割程度の雲 雲底高度 6100m
気温17℃
湿度68%
気圧1025hPa
METARMMMX 180640Z 13008KT 12SM SCT020 BKN080 BKN200 17/11 A3028 NOSIG RMK 8/578
過去の天気等 Google飛行場航空写真 Wunderground天気予報

過去48時間のMETAR

飛行場予報(TAF)
発表時間: 6/17 23:16 CDT (6/18 04:16 UTC)
予報対象時間: 18日1時 CDT ~ 19日7時 CDT
風向・風速南東 7m/s
視程10km以上
全天の4割程度の雲 雲底高度 610m
全天の8割程度の雲 雲底高度 2440m
全天の8割程度の雲 雲底高度 6100m
18日13時 CDT から
風向・風速南東 5m/s
視程10km以上
全天の8割程度の雲 雲底高度 610m
全天の8割程度の雲 雲底高度 2740m
全天を覆う雲 雲底高度 6710m
18日16時 CDT ~ 18日18時 CDT に徐々に
視程8050m
天気現象弱い雨
18日18時 CDT ~ 18日22時 CDT に一時的に
視程6440m
天気現象雷雨
全天の8割程度の積乱雲 雲底高度 610m
19日3時 CDT から
風向・風速静穏
視程10km以上
全天の4割程度の雲 雲底高度 760m
全天の4割程度の雲 雲底高度 2740m
全天の8割程度の雲 雲底高度 6710m
TAF MMMX 180416Z 1806/1912 13014KT P6SM SCT020 BKN080 BKN200 TX24/1821Z TN14/1812Z
FM181800 14010KT P6SM BKN020 BKN090 OVC220
BECMG 1821/1823 5SM -RA
TEMPO 1823/1903 4SM TSRA BKN020CB
FM190800 00000KT P6SM SCT025 SCT090 BKN220